Time;durP1;ratioP1;P1;durP2;ratioP2;P2;SDS_P1;SDS_P2;PMS_P1;PMS_P2;Temp;Humidity;BMP_temperature;BMP_pressure;BME280_temperature;BME280_humidity;BME280_pressure;Samples;Min_cycle;Max_cycle;Signal;HPM_P1;HPM_P2
2022/01/07 00:01:32;;;;;;;59.93;19.37;;;;;;;;;;5049645;28;20039;-75
2022/01/07 00:03:58;;;;;;;64.83;22.03;;;;;;;;;;5051751;28;20041;-75
2022/01/07 00:06:23;;;;;;;55.87;21.60;;;;;;;;;;5049496;28;20033;-75
2022/01/07 00:08:49;;;;;;;67.37;21.50;;;;;;;;;;5051881;28;20032;-75
2022/01/07 00:11:15;;;;;;;49.07;19.63;;;;;;;;;;5051083;28;20123;-74
2022/01/07 00:13:41;;;;;;;59.27;21.53;;;;;;;;;;5055535;28;20063;-75
2022/01/07 00:16:08;;;;;;;66.73;21.43;;;;;;;;;;5047088;28;20029;-74
2022/01/07 00:18:33;;;;;;;57.17;19.47;;;;;;;;;;5082716;28;20576;-75
2022/01/07 00:21:00;;;;;;;54.30;20.87;;;;;;;;;;5049815;28;20040;-75
2022/01/07 00:23:26;;;;;;;61.93;20.00;;;;;;;;;;5050853;28;20492;-74
2022/01/07 00:25:52;;;;;;;63.70;19.73;;;;;;;;;;5050109;28;20127;-75
2022/01/07 00:28:18;;;;;;;64.03;19.13;;;;;;;;;;5046491;28;20029;-75
2022/01/07 00:30:44;;;;;;;58.53;20.10;;;;;;;;;;5082312;28;20044;-75
2022/01/07 00:33:10;;;;;;;57.43;17.97;;;;;;;;;;5049748;28;20449;-75
2022/01/07 00:35:36;;;;;;;65.80;20.60;;;;;;;;;;5050619;28;20025;-75
2022/01/07 00:38:02;;;;;;;61.73;21.50;;;;;;;;;;5049201;28;20053;-75
2022/01/07 00:40:28;;;;;;;64.10;20.80;;;;;;;;;;5050880;28;20060;-75
2022/01/07 00:42:54;;;;;;;59.03;18.43;;;;;;;;;;5050430;28;20153;-74
2022/01/07 00:45:24;;;;;;;59.50;19.40;;;;;;;;;;5050931;28;20036;-75
2022/01/07 00:47:50;;;;;;;70.03;19.37;;;;;;;;;;5049466;28;20040;-74
2022/01/07 00:50:18;;;;;;;70.60;21.27;;;;;;;;;;5049026;28;20033;-75
2022/01/07 00:52:44;;;;;;;72.83;21.77;;;;;;;;;;5048901;28;20059;-76
2022/01/07 00:55:11;;;;;;;53.17;19.27;;;;;;;;;;5046087;28;20118;-75
2022/01/07 00:57:36;;;;;;;60.67;20.13;;;;;;;;;;5048638;28;20040;-74
2022/01/07 01:00:09;;;;;;;59.67;20.00;;;;;;;;;;5045830;28;20095;-75
2022/01/07 01:02:35;;;;;;;63.90;21.87;;;;;;;;;;5048779;28;20083;-73
2022/01/07 01:05:02;;;;;;;54.03;19.63;;;;;;;;;;5047843;28;20538;-75
2022/01/07 01:07:29;;;;;;;71.77;20.53;;;;;;;;;;5081024;28;20037;-75
2022/01/07 01:09:55;;;;;;;55.87;18.73;;;;;;;;;;5049596;28;20040;-75
2022/01/07 01:12:20;;;;;;;57.03;19.77;;;;;;;;;;5050270;28;20021;-74
2022/01/07 01:14:46;;;;;;;62.60;19.83;;;;;;;;;;5045869;28;20029;-74
2022/01/07 01:17:12;;;;;;;65.50;21.57;;;;;;;;;;5048647;28;20037;-75
2022/01/07 01:19:38;;;;;;;58.97;20.73;;;;;;;;;;5049697;28;20029;-75
2022/01/07 01:22:04;;;;;;;71.70;19.20;;;;;;;;;;5049903;28;20021;-75
2022/01/07 01:24:30;;;;;;;52.63;18.13;;;;;;;;;;5045257;28;20033;-75
2022/01/07 01:26:56;;;;;;;60.27;18.03;;;;;;;;;;5081265;28;20056;-75
2022/01/07 01:29:22;;;;;;;53.83;19.23;;;;;;;;;;5055824;28;20032;-74
2022/01/07 01:31:49;;;;;;;47.37;17.67;;;;;;;;;;5048548;28;20021;-76
2022/01/07 01:34:15;;;;;;;52.70;16.43;;;;;;;;;;5048608;28;20059;-75
2022/01/07 01:36:41;;;;;;;58.00;19.20;;;;;;;;;;5031303;28;20064;-75
2022/01/07 01:39:08;;;;;;;56.13;19.00;;;;;;;;;;5048282;28;20086;-75
2022/01/07 01:41:34;;;;;;;47.67;17.93;;;;;;;;;;5044879;28;20044;-74
2022/01/07 01:44:00;;;;;;;54.00;18.43;;;;;;;;;;5048419;28;20385;-74
2022/01/07 01:46:25;;;;;;;58.40;18.17;;;;;;;;;;5049741;28;20079;-76
2022/01/07 01:48:51;;;;;;;50.77;19.70;;;;;;;;;;5048775;28;20032;-74
2022/01/07 01:51:17;;;;;;;55.77;16.30;;;;;;;;;;5051398;28;20025;-74
2022/01/07 01:53:43;;;;;;;53.13;20.30;;;;;;;;;;5049605;28;20029;-75
2022/01/07 01:56:09;;;;;;;52.63;18.33;;;;;;;;;;5049833;28;20024;-75
2022/01/07 01:58:35;;;;;;;50.10;17.53;;;;;;;;;;5048106;28;20170;-75
2022/01/07 02:01:01;;;;;;;59.93;19.00;;;;;;;;;;5049562;28;20095;-75
2022/01/07 02:03:26;;;;;;;53.97;17.53;;;;;;;;;;5047878;28;20081;-74
2022/01/07 02:05:54;;;;;;;55.17;17.67;;;;;;;;;;5047675;28;20036;-75
2022/01/07 02:08:20;;;;;;;50.10;17.23;;;;;;;;;;5044818;28;20135;-76
2022/01/07 02:10:45;;;;;;;47.00;17.43;;;;;;;;;;5044913;28;20033;-75
2022/01/07 02:13:11;;;;;;;52.20;18.20;;;;;;;;;;5049288;28;20433;-75
2022/01/07 02:15:37;;;;;;;47.80;18.97;;;;;;;;;;5047620;28;20025;-74
2022/01/07 02:18:03;;;;;;;50.97;16.87;;;;;;;;;;5049312;28;20031;-75
2022/01/07 02:20:29;;;;;;;62.17;17.63;;;;;;;;;;5049469;28;20032;-75
2022/01/07 02:22:56;;;;;;;51.20;16.60;;;;;;;;;;5050284;28;20400;-75
2022/01/07 02:25:22;;;;;;;52.40;16.33;;;;;;;;;;5047490;28;20110;-74
2022/01/07 02:27:48;;;;;;;48.47;15.07;;;;;;;;;;5048747;28;20100;-75
2022/01/07 02:30:18;;;;;;;60.10;17.67;;;;;;;;;;5047170;28;20111;-74
2022/01/07 02:32:44;;;;;;;46.13;15.53;;;;;;;;;;5049041;28;20115;-75
2022/01/07 02:35:10;;;;;;;45.20;14.70;;;;;;;;;;5048586;28;20044;-76
2022/01/07 02:37:36;;;;;;;41.40;16.10;;;;;;;;;;5080685;28;20033;-76
2022/01/07 02:40:07;;;;;;;53.97;17.10;;;;;;;;;;5047358;28;20025;-75
2022/01/07 02:42:33;;;;;;;47.73;16.67;;;;;;;;;;5047458;28;20036;-74
2022/01/07 02:44:58;;;;;;;49.97;17.47;;;;;;;;;;5044565;28;20025;-75
2022/01/07 02:47:29;;;;;;;49.23;16.60;;;;;;;;;;5045685;28;20112;-74
2022/01/07 02:49:54;;;;;;;51.07;18.03;;;;;;;;;;5047639;28;20043;-74
2022/01/07 02:52:20;;;;;;;41.20;15.57;;;;;;;;;;5043557;28;20460;-74
2022/01/07 02:54:45;;;;;;;52.20;14.97;;;;;;;;;;5046508;28;20029;-74
2022/01/07 02:57:11;;;;;;;55.70;16.57;;;;;;;;;;5047288;28;20029;-73
2022/01/07 02:59:36;;;;;;;48.87;16.87;;;;;;;;;;5047349;28;20353;-75
2022/01/07 03:02:02;;;;;;;47.87;18.23;;;;;;;;;;5048748;28;20055;-74
2022/01/07 03:04:28;;;;;;;56.27;17.10;;;;;;;;;;5049038;28;20090;-75
2022/01/07 03:06:54;;;;;;;48.60;15.70;;;;;;;;;;5051284;28;20056;-76
2022/01/07 03:09:20;;;;;;;53.43;17.60;;;;;;;;;;5057566;28;20028;-74
2022/01/07 03:11:46;;;;;;;44.50;16.73;;;;;;;;;;5059475;28;20199;-74
2022/01/07 03:14:11;;;;;;;44.23;15.50;;;;;;;;;;5051733;28;20397;-75
2022/01/07 03:16:39;;;;;;;49.07;16.77;;;;;;;;;;5060264;28;20087;-74
2022/01/07 03:19:06;;;;;;;42.37;16.47;;;;;;;;;;5061879;28;20031;-74
2022/01/07 03:21:31;;;;;;;56.00;16.63;;;;;;;;;;5055453;28;20061;-74
2022/01/07 03:23:57;;;;;;;46.47;14.80;;;;;;;;;;5051341;28;20542;-74
2022/01/07 03:26:23;;;;;;;45.90;15.03;;;;;;;;;;5051172;28;20401;-74
2022/01/07 03:28:49;;;;;;;50.43;15.23;;;;;;;;;;5050951;28;20040;-74
2022/01/07 03:31:14;;;;;;;48.27;16.80;;;;;;;;;;5051003;28;20068;-74
2022/01/07 03:33:40;;;;;;;49.77;17.10;;;;;;;;;;5051951;28;20032;-75
2022/01/07 03:36:06;;;;;;;51.00;15.87;;;;;;;;;;5050953;28;20120;-74
2022/01/07 03:38:31;;;;;;;45.97;14.70;;;;;;;;;;5051721;28;20073;-74
2022/01/07 03:40:57;;;;;;;48.47;14.03;;;;;;;;;;5051856;28;20078;-74
2022/01/07 03:43:24;;;;;;;50.53;13.77;;;;;;;;;;5050239;28;20453;-74
2022/01/07 03:45:50;;;;;;;43.43;15.90;;;;;;;;;;5052041;28;20036;-75
2022/01/07 03:48:16;;;;;;;51.93;15.80;;;;;;;;;;5050752;28;20035;-73
2022/01/07 03:50:41;;;;;;;40.17;13.67;;;;;;;;;;5049851;28;20029;-74
2022/01/07 03:53:08;;;;;;;45.60;14.60;;;;;;;;;;5052034;28;20040;-75
2022/01/07 03:55:33;;;;;;;45.43;14.23;;;;;;;;;;5052000;28;20432;-75
2022/01/07 03:58:00;;;;;;;36.83;14.57;;;;;;;;;;5049021;28;20132;-74
2022/01/07 04:00:34;;;;;;;41.13;14.07;;;;;;;;;;5051527;28;20480;-75
2022/01/07 04:03:06;;;;;;;41.80;14.23;;;;;;;;;;5051933;28;20037;-75
2022/01/07 04:05:31;;;;;;;47.08;15.70;;;;;;;;;;5049779;28;20041;-73
2022/01/07 04:07:57;;;;;;;50.57;15.03;;;;;;;;;;5049982;28;20110;-75
2022/01/07 04:10:22;;;;;;;42.47;13.83;;;;;;;;;;5049766;28;20123;-75
2022/01/07 04:12:50;;;;;;;46.03;15.03;;;;;;;;;;5051550;28;20017;-76
2022/01/07 04:15:16;;;;;;;39.43;15.10;;;;;;;;;;5050134;28;21051;-75
2022/01/07 04:17:45;;;;;;;48.37;15.07;;;;;;;;;;5048841;28;20492;-74
2022/01/07 04:20:13;;;;;;;41.03;15.43;;;;;;;;;;5051456;28;20056;-75
2022/01/07 04:22:39;;;;;;;37.73;14.57;;;;;;;;;;5050838;28;20021;-75
2022/01/07 04:25:08;;;;;;;47.37;16.20;;;;;;;;;;5051605;28;20492;-75
2022/01/07 04:27:34;;;;;;;42.97;14.07;;;;;;;;;;5051830;28;20025;-75
2022/01/07 04:29:59;;;;;;;44.70;14.23;;;;;;;;;;5053553;28;20649;-74
2022/01/07 04:32:25;;;;;;;32.50;13.93;;;;;;;;;;5051508;28;20037;-75
2022/01/07 04:34:51;;;;;;;44.93;15.73;;;;;;;;;;5051058;28;20043;-74
2022/01/07 04:37:17;;;;;;;34.23;15.03;;;;;;;;;;5049253;28;20069;-75
2022/01/07 04:39:43;;;;;;;46.43;16.43;;;;;;;;;;5049257;28;20037;-74
2022/01/07 04:42:09;;;;;;;57.10;16.40;;;;;;;;;;5051180;28;20036;-74
2022/01/07 04:44:40;;;;;;;41.73;15.57;;;;;;;;;;5050618;28;20029;-74
2022/01/07 04:47:09;;;;;;;41.60;16.03;;;;;;;;;;5049369;28;20032;-75
2022/01/07 04:49:36;;;;;;;42.63;16.23;;;;;;;;;;5029358;28;20082;-75
2022/01/07 04:52:05;;;;;;;37.37;14.87;;;;;;;;;;5046153;28;20504;-75
2022/01/07 04:54:32;;;;;;;55.80;16.57;;;;;;;;;;5051173;28;20028;-75
2022/01/07 04:56:58;;;;;;;46.20;14.03;;;;;;;;;;5050797;28;20371;-74
2022/01/07 04:59:24;;;;;;;56.47;16.97;;;;;;;;;;5049994;28;20393;-75
2022/01/07 05:01:50;;;;;;;50.07;17.27;;;;;;;;;;5050462;28;20028;-74
2022/01/07 05:04:15;;;;;;;45.57;15.50;;;;;;;;;;5050886;28;20035;-74
2022/01/07 05:09:06;;;;;;;36.87;14.13;;;;;;;;;;5050478;28;20476;-73
2022/01/07 05:11:32;;;;;;;38.67;13.67;;;;;;;;;;5049164;28;20547;-73
2022/01/07 05:13:57;;;;;;;39.80;14.93;;;;;;;;;;5049043;28;20029;-75
2022/01/07 05:16:24;;;;;;;46.63;15.93;;;;;;;;;;5050089;28;20059;-74
2022/01/07 05:18:49;;;;;;;40.40;14.80;;;;;;;;;;5048882;28;20056;-73
2022/01/07 05:21:15;;;;;;;43.93;15.70;;;;;;;;;;5049386;28;20496;-73
2022/01/07 05:23:41;;;;;;;46.10;14.43;;;;;;;;;;5050799;28;20024;-75
2022/01/07 05:26:07;;;;;;;48.40;14.27;;;;;;;;;;5049553;28;20033;-75
2022/01/07 05:28:34;;;;;;;42.93;13.63;;;;;;;;;;5049408;28;20032;-74
2022/01/07 05:31:00;;;;;;;55.80;15.97;;;;;;;;;;5050410;28;20039;-74
2022/01/07 05:33:26;;;;;;;39.53;14.90;;;;;;;;;;5050156;28;20107;-73
2022/01/07 05:35:51;;;;;;;51.30;17.10;;;;;;;;;;5048227;28;20132;-75
2022/01/07 05:38:17;;;;;;;53.30;16.70;;;;;;;;;;5049837;28;20048;-75
2022/01/07 05:40:42;;;;;;;44.03;15.67;;;;;;;;;;5047671;28;20029;-75
2022/01/07 05:43:07;;;;;;;47.57;15.77;;;;;;;;;;5048201;28;20032;-74
2022/01/07 05:45:33;;;;;;;46.77;15.40;;;;;;;;;;5049312;28;20115;-74
2022/01/07 05:47:58;;;;;;;43.10;14.57;;;;;;;;;;5047440;28;20037;-74
2022/01/07 05:50:24;;;;;;;34.00;14.87;;;;;;;;;;5047952;28;20025;-74
2022/01/07 05:52:50;;;;;;;41.53;15.87;;;;;;;;;;5049459;28;20116;-74
2022/01/07 05:55:15;;;;;;;45.30;12.93;;;;;;;;;;5049595;28;20087;-74
2022/01/07 05:57:41;;;;;;;32.10;13.97;;;;;;;;;;5048006;28;20041;-74
2022/01/07 06:00:08;;;;;;;36.90;14.07;;;;;;;;;;5048269;28;20033;-74
2022/01/07 06:02:34;;;;;;;39.27;14.67;;;;;;;;;;5048064;28;20036;-75
2022/01/07 06:05:00;;;;;;;39.23;13.73;;;;;;;;;;5047974;28;20040;-74
2022/01/07 06:07:25;;;;;;;45.27;13.60;;;;;;;;;;5047412;28;20028;-75
2022/01/07 06:09:51;;;;;;;44.03;15.07;;;;;;;;;;5049626;28;20488;-74
2022/01/07 06:12:17;;;;;;;43.10;15.40;;;;;;;;;;5049463;28;20436;-74
2022/01/07 06:14:43;;;;;;;43.10;13.77;;;;;;;;;;5045056;28;20035;-74
2022/01/07 06:17:10;;;;;;;48.50;14.87;;;;;;;;;;5059219;28;20465;-74
2022/01/07 06:19:36;;;;;;;42.57;13.57;;;;;;;;;;5047386;28;20485;-74
2022/01/07 06:22:03;;;;;;;37.53;13.17;;;;;;;;;;5045168;28;20087;-75
2022/01/07 06:24:28;;;;;;;36.60;14.73;;;;;;;;;;5047578;28;20446;-74
2022/01/07 06:26:54;;;;;;;44.70;20.17;;;;;;;;;;5048354;28;20152;-73
2022/01/07 06:29:19;;;;;;;43.73;15.73;;;;;;;;;;5043021;28;20423;-73
2022/01/07 06:31:45;;;;;;;39.33;13.73;;;;;;;;;;5046937;28;20365;-73
2022/01/07 06:34:10;;;;;;;46.43;14.77;;;;;;;;;;5048503;28;20392;-73
2022/01/07 06:36:36;;;;;;;38.37;14.53;;;;;;;;;;5046304;28;20032;-72
2022/01/07 06:39:02;;;;;;;48.20;14.27;;;;;;;;;;5050030;28;20151;-72
2022/01/07 06:41:28;;;;;;;47.37;16.03;;;;;;;;;;5048735;28;20033;-74
2022/01/07 06:43:53;;;;;;;31.20;13.03;;;;;;;;;;5047104;28;20039;-73
2022/01/07 06:46:19;;;;;;;37.50;13.60;;;;;;;;;;5049389;28;20035;-73
2022/01/07 06:48:45;;;;;;;39.40;15.60;;;;;;;;;;5046901;28;20389;-73
2022/01/07 06:51:10;;;;;;;37.87;12.70;;;;;;;;;;5045540;28;20076;-73
2022/01/07 06:53:36;;;;;;;40.43;13.90;;;;;;;;;;5045159;28;20035;-74
2022/01/07 06:56:03;;;;;;;38.97;12.00;;;;;;;;;;5046608;28;20512;-73
2022/01/07 06:58:29;;;;;;;36.23;12.83;;;;;;;;;;5043077;28;20072;-73
2022/01/07 07:00:55;;;;;;;42.03;14.40;;;;;;;;;;5048239;28;20040;-73
2022/01/07 07:03:21;;;;;;;37.90;13.67;;;;;;;;;;5046792;28;20037;-73
2022/01/07 07:05:46;;;;;;;38.00;13.40;;;;;;;;;;5043199;28;20111;-74
2022/01/07 07:08:12;;;;;;;45.80;16.13;;;;;;;;;;5037618;28;20041;-73
2022/01/07 07:10:37;;;;;;;33.13;12.00;;;;;;;;;;5041043;28;20640;-74
2022/01/07 07:13:03;;;;;;;45.77;14.13;;;;;;;;;;5040995;28;20033;-74
2022/01/07 07:15:28;;;;;;;28.40;11.07;;;;;;;;;;5040543;28;20362;-74
2022/01/07 07:17:54;;;;;;;43.37;14.20;;;;;;;;;;5039475;28;20082;-74
2022/01/07 07:20:20;;;;;;;34.17;12.40;;;;;;;;;;5040782;28;20033;-74
2022/01/07 07:22:45;;;;;;;39.27;11.97;;;;;;;;;;5041741;28;20047;-72
2022/01/07 07:25:11;;;;;;;26.67;12.67;;;;;;;;;;5039834;28;20051;-74
2022/01/07 07:27:37;;;;;;;29.70;9.23;;;;;;;;;;5039708;28;20032;-73
2022/01/07 07:30:08;;;;;;;39.43;12.57;;;;;;;;;;5021457;28;20039;-73
2022/01/07 07:32:35;;;;;;;30.23;13.40;;;;;;;;;;5041843;28;20289;-73
2022/01/07 07:37:58;;;;;;;48.33;12.80;;;;;;;;;;5025853;28;20136;-73
2022/01/07 07:40:24;;;;;;;42.30;13.77;;;;;;;;;;5042796;28;20673;-73
2022/01/07 07:42:50;;;;;;;37.47;13.27;;;;;;;;;;5044627;28;20043;-73
2022/01/07 07:45:15;;;;;;;30.80;11.40;;;;;;;;;;5042730;28;20066;-73
2022/01/07 07:47:42;;;;;;;37.87;13.87;;;;;;;;;;5040123;28;20047;-73
2022/01/07 07:50:08;;;;;;;35.97;13.07;;;;;;;;;;5037342;28;20044;-74
2022/01/07 07:52:34;;;;;;;31.47;12.37;;;;;;;;;;5023664;28;20037;-73
2022/01/07 07:55:00;;;;;;;36.07;12.67;;;;;;;;;;5044308;28;20041;-73
2022/01/07 07:57:26;;;;;;;33.43;11.57;;;;;;;;;;5044233;28;20493;-74
2022/01/07 07:59:54;;;;;;;37.93;13.10;;;;;;;;;;5043788;28;20043;-73
2022/01/07 08:02:20;;;;;;;30.50;12.57;;;;;;;;;;5042426;28;20049;-75
2022/01/07 08:04:46;;;;;;;37.93;12.37;;;;;;;;;;5044185;28;20032;-74
2022/01/07 08:07:16;;;;;;;32.70;11.50;;;;;;;;;;5041038;28;20074;-74
2022/01/07 08:09:42;;;;;;;41.57;13.20;;;;;;;;;;5042790;28;20062;-73
2022/01/07 08:12:28;;;;;;;38.60;12.53;;;;;;;;;;5044377;28;20526;-74
2022/01/07 08:17:39;;;;;;;31.30;12.37;;;;;;;;;;5042878;28;20674;-74
2022/01/07 08:20:06;;;;;;;41.43;12.50;;;;;;;;;;5036951;28;20516;-74
2022/01/07 08:22:31;;;;;;;42.97;14.80;;;;;;;;;;5042311;28;20028;-71
2022/01/07 08:24:57;;;;;;;47.20;14.47;;;;;;;;;;5039317;28;20047;-72
2022/01/07 08:27:23;;;;;;;29.67;11.93;;;;;;;;;;5040413;28;20434;-74
2022/01/07 08:29:50;;;;;;;35.93;13.57;;;;;;;;;;5037860;28;20043;-75
2022/01/07 08:35:00;;;;;;;33.00;13.03;;;;;;;;;;5042461;28;20476;-71
2022/01/07 08:37:27;;;;;;;43.93;12.73;;;;;;;;;;5039022;28;20569;-73
2022/01/07 08:39:55;;;;;;;36.47;13.60;;;;;;;;;;5036116;28;20080;-74
2022/01/07 08:42:22;;;;;;;40.00;14.13;;;;;;;;;;5040100;28;20939;-71
2022/01/07 08:44:51;;;;;;;31.57;13.90;;;;;;;;;;5038928;28;20390;-74
2022/01/07 08:47:17;;;;;;;31.13;13.20;;;;;;;;;;5041946;28;20434;-74
2022/01/07 08:49:43;;;;;;;36.97;13.13;;;;;;;;;;5038928;28;20580;-74
2022/01/07 08:52:09;;;;;;;39.83;11.73;;;;;;;;;;5025319;28;20524;-75
2022/01/07 08:54:35;;;;;;;52.87;13.87;;;;;;;;;;5040410;28;20025;-73
2022/01/07 08:57:01;;;;;;;52.33;13.67;;;;;;;;;;5041225;28;20068;-73
2022/01/07 08:59:27;;;;;;;33.77;12.80;;;;;;;;;;5036262;28;20040;-73
2022/01/07 09:01:54;;;;;;;35.53;12.50;;;;;;;;;;5042900;28;20357;-73
2022/01/07 09:04:23;;;;;;;44.10;12.60;;;;;;;;;;5038934;28;20372;-75
2022/01/07 09:06:53;;;;;;;41.90;12.87;;;;;;;;;;5038995;28;20080;-73
2022/01/07 09:09:19;;;;;;;36.53;13.40;;;;;;;;;;5033117;28;20152;-74
2022/01/07 09:11:44;;;;;;;39.60;13.37;;;;;;;;;;5036534;28;20774;-74
2022/01/07 09:14:11;;;;;;;37.87;13.57;;;;;;;;;;5039727;28;20086;-73
2022/01/07 09:16:37;;;;;;;33.60;12.43;;;;;;;;;;5040003;28;20090;-74
2022/01/07 09:19:03;;;;;;;35.20;13.43;;;;;;;;;;5035176;28;20036;-72
2022/01/07 09:21:28;;;;;;;46.57;14.80;;;;;;;;;;5041551;28;20033;-74
2022/01/07 09:23:55;;;;;;;34.10;12.53;;;;;;;;;;5041708;28;20037;-73
2022/01/07 09:26:21;;;;;;;34.90;12.10;;;;;;;;;;5042739;28;20036;-73
2022/01/07 09:28:48;;;;;;;28.17;11.13;;;;;;;;;;5038504;28;20044;-73
2022/01/07 09:31:14;;;;;;;33.07;12.00;;;;;;;;;;5023523;28;20061;-75
2022/01/07 09:33:41;;;;;;;31.70;12.23;;;;;;;;;;5039589;28;20250;-74
2022/01/07 09:36:07;;;;;;;37.97;12.17;;;;;;;;;;5072639;28;20115;-73
2022/01/07 09:38:32;;;;;;;36.00;11.97;;;;;;;;;;5024717;28;20049;-74
2022/01/07 09:40:59;;;;;;;31.03;11.10;;;;;;;;;;5038902;28;20508;-73
2022/01/07 09:43:25;;;;;;;40.87;12.10;;;;;;;;;;5041312;28;20029;-75
2022/01/07 09:45:52;;;;;;;30.90;11.10;;;;;;;;;;5074832;28;20093;-74
2022/01/07 09:48:18;;;;;;;35.67;12.83;;;;;;;;;;5036841;28;20036;-74
2022/01/07 09:50:45;;;;;;;28.83;11.67;;;;;;;;;;5039914;28;20075;-74
2022/01/07 09:53:13;;;;;;;30.57;12.83;;;;;;;;;;5038691;28;20028;-75
2022/01/07 09:55:40;;;;;;;34.87;14.13;;;;;;;;;;5043188;28;20024;-74
2022/01/07 09:58:07;;;;;;;35.10;12.07;;;;;;;;;;5036605;28;20131;-74
2022/01/07 10:01:02;;;;;;;27.50;11.60;;;;;;;;;;5041612;28;20023;-73
2022/01/07 10:03:39;;;;;;;32.47;11.30;;;;;;;;;;5041007;28;20036;-73
2022/01/07 10:06:26;;;;;;;31.57;10.97;;;;;;;;;;5043646;28;20116;-73
2022/01/07 10:09:10;;;;;;;39.33;13.10;;;;;;;;;;5034230;28;20428;-74
2022/01/07 10:11:36;;;;;;;42.10;11.90;;;;;;;;;;5036590;28;20056;-74
2022/01/07 10:14:21;;;;;;;42.93;12.53;;;;;;;;;;5039390;28;20036;-74
2022/01/07 10:16:56;;;;;;;31.70;11.50;;;;;;;;;;5021854;28;20647;-73
2022/01/07 10:19:49;;;;;;;34.00;12.77;;;;;;;;;;5035174;28;20036;-74
2022/01/07 10:22:15;;;;;;;31.70;10.37;;;;;;;;;;5038438;28;20049;-76
2022/01/07 10:25:02;;;;;;;30.00;11.43;;;;;;;;;;5038378;28;20040;-74
2022/01/07 10:27:38;;;;;;;26.10;10.23;;;;;;;;;;5043514;28;20380;-73
2022/01/07 10:30:25;;;;;;;37.60;11.80;;;;;;;;;;5033213;28;20473;-73
2022/01/07 10:32:55;;;;;;;31.33;11.93;;;;;;;;;;5038934;28;20040;-74
2022/01/07 10:35:24;;;;;;;32.57;11.53;;;;;;;;;;5039151;28;20479;-74
2022/01/07 10:38:00;;;;;;;37.90;14.80;;;;;;;;;;5037497;28;20048;-74
2022/01/07 10:40:39;;;;;;;34.13;12.50;;;;;;;;;;5037450;28;20084;-74
2022/01/07 10:43:18;;;;;;;31.13;11.93;;;;;;;;;;5036278;28;20844;-76
2022/01/07 10:45:48;;;;;;;31.20;11.80;;;;;;;;;;5038999;28;20041;-74
2022/01/07 10:48:14;;;;;;;37.00;12.40;;;;;;;;;;5032935;28;20116;-73
2022/01/07 10:50:51;;;;;;;37.13;12.23;;;;;;;;;;5037229;28;20040;-73
2022/01/07 10:53:21;;;;;;;35.37;11.30;;;;;;;;;;5038427;28;20086;-74
2022/01/07 10:56:03;;;;;;;37.90;15.20;;;;;;;;;;5039921;28;20117;-73
2022/01/07 10:59:11;;;;;;;39.30;13.17;;;;;;;;;;5034134;28;20041;-73
2022/01/07 11:01:56;;;;;;;36.83;11.70;;;;;;;;;;5035931;28;20133;-72
2022/01/07 11:04:26;;;;;;;29.87;11.97;;;;;;;;;;5037178;28;20181;-73
2022/01/07 11:06:53;;;;;;;34.03;12.43;;;;;;;;;;5039141;28;20032;-74
2022/01/07 11:09:20;;;;;;;31.43;10.77;;;;;;;;;;5031687;28;20041;-74
2022/01/07 11:11:54;;;;;;;37.70;12.10;;;;;;;;;;5037570;28;20398;-75
2022/01/07 11:14:25;;;;;;;32.10;12.97;;;;;;;;;;5033772;28;20040;-74
2022/01/07 11:16:52;;;;;;;26.83;9.93;;;;;;;;;;5035927;28;20045;-73
2022/01/07 11:19:20;;;;;;;37.43;11.47;;;;;;;;;;5047550;28;20036;-75
2022/01/07 11:21:50;;;;;;;28.60;11.57;;;;;;;;;;5034724;28;20851;-73
2022/01/07 11:24:42;;;;;;;30.43;11.17;;;;;;;;;;5036589;28;20029;-75
2022/01/07 11:27:20;;;;;;;29.85;10.07;;;;;;;;;;5038641;28;20534;-74
2022/01/07 11:30:04;;;;;;;21.97;9.97;;;;;;;;;;5053075;28;20063;-74
2022/01/07 11:32:35;;;;;;;23.73;9.73;;;;;;;;;;5040637;28;20029;-76
2022/01/07 11:35:16;;;;;;;31.42;11.38;;;;;;;;;;5042084;28;20028;-74
2022/01/07 11:37:44;;;;;;;29.43;11.13;;;;;;;;;;5041864;28;20032;-75
2022/01/07 11:40:29;;;;;;;25.17;9.77;;;;;;;;;;5039432;28;20033;-74
2022/01/07 11:42:59;;;;;;;26.93;10.10;;;;;;;;;;5040246;28;20035;-73
2022/01/07 11:45:38;;;;;;;23.43;8.80;;;;;;;;;;5042690;28;20086;-74
2022/01/07 11:48:15;;;;;;;26.97;8.30;;;;;;;;;;5039530;28;20064;-74
2022/01/07 11:50:57;;;;;;;26.97;8.90;;;;;;;;;;5055331;28;20033;-74
2022/01/07 11:53:44;;;;;;;30.40;9.18;;;;;;;;;;5042636;28;20124;-74
2022/01/07 11:56:12;;;;;;;21.97;8.33;;;;;;;;;;5040901;28;20404;-74
2022/01/07 11:58:44;;;;;;;24.97;9.13;;;;;;;;;;5038346;28;20099;-75
2022/01/07 12:01:29;;;;;;;18.57;8.57;;;;;;;;;;5042740;28;20021;-74
2022/01/07 12:04:00;;;;;;;21.00;8.57;;;;;;;;;;5042531;28;20294;-75
2022/01/07 12:06:26;;;;;;;19.10;9.02;;;;;;;;;;5042074;28;20151;-74
2022/01/07 12:09:10;;;;;;;24.50;9.13;;;;;;;;;;5037654;28;20697;-75
2022/01/07 12:11:41;;;;;;;27.27;8.90;;;;;;;;;;5042430;28;20553;-74
2022/01/07 12:14:19;;;;;;;27.27;10.13;;;;;;;;;;5041792;28;20431;-74
2022/01/07 12:16:59;;;;;;;26.10;9.23;;;;;;;;;;5041760;28;20609;-74
2022/01/07 12:19:37;;;;;;;28.07;9.20;;;;;;;;;;5038129;28;20037;-74
2022/01/07 12:22:09;;;;;;;32.70;10.20;;;;;;;;;;5042481;28;20029;-75
2022/01/07 12:24:34;;;;;;;23.35;9.95;;;;;;;;;;5027015;28;20097;-75
2022/01/07 12:27:11;;;;;;;30.07;10.07;;;;;;;;;;5043378;28;20078;-74
2022/01/07 12:29:43;;;;;;;29.50;10.27;;;;;;;;;;5054773;28;20469;-73
2022/01/07 12:32:11;;;;;;;23.05;9.75;;;;;;;;;;5040928;28;20509;-75
2022/01/07 12:34:45;;;;;;;23.27;10.10;;;;;;;;;;5040111;28;20056;-74
2022/01/07 12:37:24;;;;;;;25.80;10.90;;;;;;;;;;5041938;28;20044;-73
2022/01/07 12:39:59;;;;;;;28.07;9.83;;;;;;;;;;5035987;28;20110;-76
2022/01/07 12:42:26;;;;;;;34.83;11.90;;;;;;;;;;5039343;28;20678;-74
2022/01/07 12:44:57;;;;;;;24.90;10.70;;;;;;;;;;5040242;28;20037;-73
2022/01/07 12:47:31;;;;;;;32.67;12.00;;;;;;;;;;5042822;28;20041;-75
2022/01/07 12:50:00;;;;;;;22.57;8.93;;;;;;;;;;5041904;28;20025;-74
2022/01/07 12:52:33;;;;;;;24.57;9.13;;;;;;;;;;5043491;28;20037;-74
2022/01/07 12:55:03;;;;;;;29.33;9.60;;;;;;;;;;5048580;28;20098;-74
2022/01/07 12:57:31;;;;;;;24.33;9.30;;;;;;;;;;5044733;28;20040;-74
2022/01/07 13:00:09;;;;;;;24.30;9.53;;;;;;;;;;5043603;28;20033;-74
2022/01/07 13:02:36;;;;;;;27.93;10.20;;;;;;;;;;5061673;28;20040;-75
2022/01/07 13:05:16;;;;;;;27.30;9.57;;;;;;;;;;5044326;28;20047;-76
2022/01/07 13:07:46;;;;;;;27.03;10.60;;;;;;;;;;5042419;28;20032;-75
2022/01/07 13:10:15;;;;;;;29.63;10.10;;;;;;;;;;5040416;28;20037;-73
2022/01/07 13:12:50;;;;;;;24.80;9.80;;;;;;;;;;5042864;28;20040;-74
2022/01/07 13:15:16;;;;;;;36.73;13.00;;;;;;;;;;5045820;28;20044;-75
2022/01/07 13:17:42;;;;;;;22.70;8.60;;;;;;;;;;5046854;28;20029;-74
2022/01/07 13:20:07;;;;;;;29.07;11.57;;;;;;;;;;5042903;28;20028;-74
2022/01/07 13:22:33;;;;;;;23.23;9.97;;;;;;;;;;5042718;28;20338;-75
2022/01/07 13:24:59;;;;;;;30.90;9.60;;;;;;;;;;5042083;28;20260;-74
2022/01/07 13:27:24;;;;;;;24.27;10.13;;;;;;;;;;5040593;28;20614;-74
2022/01/07 13:29:51;;;;;;;22.17;9.60;;;;;;;;;;5054290;28;20400;-74
2022/01/07 13:32:21;;;;;;;24.93;10.53;;;;;;;;;;5043665;28;20024;-74
2022/01/07 13:34:48;;;;;;;29.30;10.30;;;;;;;;;;5040687;28;20064;-73
2022/01/07 13:37:15;;;;;;;27.77;9.20;;;;;;;;;;5042277;28;20138;-75
2022/01/07 13:39:48;;;;;;;22.27;10.03;;;;;;;;;;5037468;28;20045;-73
2022/01/07 13:42:29;;;;;;;30.07;9.67;;;;;;;;;;5043289;28;20043;-74
2022/01/07 13:45:02;;;;;;;21.15;8.75;;;;;;;;;;5059388;28;20065;-74
2022/01/07 13:47:34;;;;;;;25.23;10.47;;;;;;;;;;5044669;28;20036;-74
2022/01/07 13:50:07;;;;;;;26.77;10.73;;;;;;;;;;5045036;28;20049;-73
2022/01/07 13:52:33;;;;;;;22.27;10.27;;;;;;;;;;5041966;28;20037;-73
2022/01/07 13:55:00;;;;;;;27.90;11.80;;;;;;;;;;5042324;28;20025;-75
2022/01/07 13:57:30;;;;;;;18.53;8.83;;;;;;;;;;5040815;28;20036;-74
2022/01/07 13:59:56;;;;;;;22.90;7.77;;;;;;;;;;5041330;28;20115;-74
2022/01/07 14:02:32;;;;;;;25.60;8.70;;;;;;;;;;5043058;28;20170;-73
2022/01/07 14:05:11;;;;;;;21.07;9.67;;;;;;;;;;5040986;28;20048;-73
2022/01/07 14:07:40;;;;;;;32.53;9.63;;;;;;;;;;5042606;28;20035;-73
2022/01/07 14:10:16;;;;;;;23.80;7.83;;;;;;;;;;5038809;28;20116;-74
2022/01/07 14:13:00;;;;;;;25.13;9.77;;;;;;;;;;5041362;28;20040;-75
2022/01/07 14:15:50;;;;;;;22.33;9.13;;;;;;;;;;5042771;28;20037;-74
2022/01/07 14:18:15;;;;;;;28.13;9.87;;;;;;;;;;5074682;28;20037;-75
2022/01/07 14:20:44;;;;;;;25.90;9.23;;;;;;;;;;5042914;28;20435;-74
2022/01/07 14:23:15;;;;;;;19.73;9.33;;;;;;;;;;5044350;28;20028;-74
2022/01/07 14:25:42;;;;;;;17.38;9.20;;;;;;;;;;5042736;28;20053;-73
2022/01/07 14:28:07;;;;;;;29.70;9.07;;;;;;;;;;5024373;28;20048;-74
2022/01/07 14:30:34;;;;;;;22.97;8.70;;;;;;;;;;5040501;28;20136;-74
2022/01/07 14:32:59;;;;;;;21.47;8.60;;;;;;;;;;5042603;28;20039;-74
2022/01/07 14:35:26;;;;;;;22.60;9.00;;;;;;;;;;5040527;28;20024;-74
2022/01/07 14:37:52;;;;;;;20.23;8.30;;;;;;;;;;5043707;28;20045;-74